• Join FlightAware (Why Join?)
  • Login
  • US Flag 
05:55AM EDT


 

Airport Tracker/Info


-or-


 

Live Flight TrackerFlight Track Log ✈ SWA2166 ✈ 20-Apr-2013 ✈ KDEN - KRNO

Flight Track Log - Related Links

Times and Time Zones

All times are in EDT time to prevent confusion due to time zone crossing. See the SWA2166 flight status page for this flight to view local times or setup timezone preferences in your user account.

Time Position Orientation Groundspeed Altitude Reporting Facility
EDT Latitude Longitude Course Direction KTS MPH feet Rate Location/Type
10:51AM 39.8500 -104.7833 308° West 205 236 7,400  Level Denver TRACON
10:52AM 39.9000 -104.8667 308° West 273 314 9,400 2,160 Climbing Denver TRACON
10:53AM 39.9156 -104.9128 294° West 277 319 10,800 2,760 Climbing Denver Center
10:54AM 39.9508 -105.0225 293° West 327 376 13,800 2,760 Climbing Denver Center
10:55AM 39.9642 -105.1478 278° West 349 402 16,600 2,820 Climbing Denver Center
10:56AM 39.9811 -105.2925 279° West 376 433 19,700 2,820 Climbing Denver Center
10:57AM 39.9825 -105.4336 271° West 392 451 22,500 2,400 Climbing Denver Center
10:58AM 39.9769 -105.5783 267° West 396 456 24,700 1,860 Climbing Denver Center
10:59AM 39.9708 -105.7289 267° West 414 476 26,400 1,680 Climbing Denver Center
11:00AM 39.9706 -105.8822 270° West 416 479 28,200 1,740 Climbing Denver Center
11:01AM 39.9794 -106.0431 274° West 437 503 30,100 2,040 Climbing Denver Center
11:02AM 39.9900 -106.2281 274° West 435 501 32,500 1,380 Climbing Denver Center
11:03AM 39.9978 -106.3861 274° West 433 498 33,000 240 Climbing Denver Center
11:04AM 40.0194 -106.5475 280° West 439 505 33,000  Level Denver Center
11:05AM 40.0442 -106.6933 283° West 433 498 33,000  Level Denver Center
11:06AM 40.0742 -106.8631 283° West 431 496 33,000  Level Denver Center
11:07AM 40.0992 -107.0058 283° West 423 487 33,000  Level Denver Center
11:08AM 40.1283 -107.1736 283° West 425 489 33,000 180 Level Denver Center
11:09AM 40.1539 -107.3189 283° West 427 491 33,400 960 Climbing Denver Center
11:10AM 40.1792 -107.4636 283° West 428 493 35,100 1,740 Climbing Denver Center
11:11AM 40.2072 -107.6311 282° West 423 487 37,100 1,380 Climbing Denver Center
11:12AM 40.2300 -107.7686 282° West 409 471 38,000 420 Climbing Denver Center
11:13AM 40.2561 -107.9300 282° West 407 468 38,000  Level Denver Center
11:14AM 40.2792 -108.0681 282° West 407 468 38,000  Level Denver Center
11:15AM 40.3056 -108.2294 282° West 407 468 38,000  Level Denver Center
11:16AM 40.3283 -108.3672 282° West 405 466 38,000  Level Denver Center
11:17AM 40.3531 -108.5269 282° West 403 464 38,000  Level Denver Center
11:18AM 40.3756 -108.6631 282° West 400 460 38,000  Level Denver Center
11:19AM 40.3994 -108.8222 281° West 400 460 38,000  Level Denver Center
11:20AM 40.4139 -108.9125 282° West 397 457 38,000  Level Salt Lake Center
11:21AM 40.4358 -109.0475 282° West 396 456 38,000  Level Salt Lake Center
11:22AM 40.4564 -109.1847 281° West 399 459 38,000  Level Salt Lake Center
11:23AM 40.4667 -109.2528 281° West 401 461 38,000  Level Denver Center
11:24AM 40.4911 -109.4125 281° West 400 460 38,000  Level Denver Center
11:24AM 40.5019 -109.4833 281° West 403 464 38,000  Level Salt Lake Center
11:25AM 40.5139 -109.6469 276° West 402 463 38,000  Level Salt Lake Center
11:26AM 40.5178 -109.7886 272° West 404 465 38,000  Level Salt Lake Center
11:27AM 40.5236 -109.9525 273° West 404 465 38,000  Level Salt Lake Center
11:28AM 40.5294 -110.0933 273° West 404 465 38,000  Level Salt Lake Center
11:29AM 40.5333 -110.2347 272° West 405 466 38,000  Level Salt Lake Center
11:30AM 40.5414 -110.4003 274° West 406 467 38,000  Level Salt Lake Center
11:31AM 40.5444 -110.5428 272° West 408 470 38,000  Level Salt Lake Center
11:32AM 40.5506 -110.6975 273° West 410 472 38,000  Level Salt Lake Center
11:33AM 40.5550 -110.8464 272° West 409 471 38,000  Level Salt Lake Center
11:34AM 40.5594 -110.9944 272° West 407 468 38,000  Level Salt Lake Center
11:35AM 40.5642 -111.1714 272° West 404 465 38,000  Level Salt Lake Center
11:37AM 40.5678 -111.3203 272° West 407 468 38,000  Level Salt Lake Center
11:38AM 40.5717 -111.4678 272° West 404 465 38,000  Level Salt Lake Center
11:39AM 40.5753 -111.6164 272° West 405 466 38,000  Level Salt Lake Center
11:40AM 40.5778 -111.7647 271° West 405 466 38,000  Level Salt Lake Center
11:41AM 40.5806 -111.9128 271° West 402 463 38,000  Level Salt Lake Center
11:42AM 40.5836 -112.0556 272° West 389 448 38,000  Level Salt Lake Center
11:43AM 40.5861 -112.1981 271° West 389 448 38,000  Level Salt Lake Center
11:44AM 40.5878 -112.3397 271° West 386 444 38,000  Level Salt Lake Center
11:45AM 40.5903 -112.4817 271° West 387 445 38,000  Level Salt Lake Center
11:46AM 40.5931 -112.6519 271° West 388 447 38,000  Level Salt Lake Center
11:47AM 40.5939 -112.7958 270° West 393 452 38,000  Level Salt Lake Center
11:48AM 40.5967 -112.9411 271° West 397 457 38,000  Level Salt Lake Center
11:49AM 40.5981 -113.0839 271° West 391 450 38,000  Level Salt Lake Center
11:50AM 40.6000 -113.2244 271° West 385 443 38,000  Level Salt Lake Center
11:51AM 40.6014 -113.3619 271° West 380 437 38,000  Level Salt Lake Center
11:52AM 40.5994 -113.4997 269° West 379 436 38,000  Level Salt Lake Center
11:53AM 40.6008 -113.6383 271° West 379 436 38,000  Level Salt Lake Center
11:54AM 40.6017 -113.8069 270° West 384 442 38,000  Level Salt Lake Center
11:55AM 40.6014 -113.9472 270° West 385 443 38,000  Level Salt Lake Center
11:56AM 40.6019 -114.0883 270° West 386 444 38,000  Level Salt Lake Center
11:57AM 40.6019 -114.2244 270° West 375 432 38,000  Level Salt Lake Center
11:58AM 40.6014 -114.3589 270° West 368 423 38,000  Level Salt Lake Center
11:59AM 40.6014 -114.4933 270° West 368 423 38,000  Level Salt Lake Center
12:00PM 40.6014 -114.6283 270° West 369 425 38,000  Level Salt Lake Center
12:01PM 40.6031 -114.7647 271° West 373 429 38,000  Level Salt Lake Center
12:02PM 40.6000 -114.9167 269° West 374 430 38,000  Level Salt Lake Center
12:03PM 40.5989 -115.0478 269° West 375 432 38,000  Level Salt Lake Center
12:04PM 40.5942 -115.2003 268° West 374 430 38,000  Level Salt Lake Center
12:05PM 40.5931 -115.3331 269° West 377 434 38,000  Level Salt Lake Center
12:06PM 40.5917 -115.4847 269° West 374 430 38,000  Level Salt Lake Center
12:07PM 40.5897 -115.6181 269° West 378 435 38,000  Level Salt Lake Center
12:08PM 40.5883 -115.7508 269° West 380 437 38,000  Level Salt Lake Center
12:09PM 40.5867 -115.9036 269° West 375 432 38,000  Level Salt Lake Center
12:10PM 40.5856 -116.0311 269° West 368 423 38,000  Level Salt Lake Center
12:11PM 40.5828 -116.1786 269° West 363 418 38,000  Level Salt Lake Center
12:12PM 40.5811 -116.3078 269° West 369 425 38,000  Level Salt Lake Center
12:13PM 40.5786 -116.4575 269° West 368 423 38,000  Level Salt Lake Center
12:14PM 40.5758 -116.5869 268° West 371 427 38,000  Level Salt Lake Center
12:15PM 40.5742 -116.7133 269° West 366 421 38,000  Level Salt Lake Center
12:17PM 40.5700 -116.8608 268° West 365 420 38,000  Level Salt Lake Center
12:18PM 40.5519 -116.9853 259° West 373 429 38,000  Level Salt Lake Center
12:19PM 40.5150 -117.1317 252° West 381 438 38,000  Level Salt Lake Center
12:20PM 40.4817 -117.2567 251° West 382 440 38,000  Level Salt Lake Center
12:21PM 40.4425 -117.4028 251° West 381 438 38,000  Level Salt Lake Center
12:22PM 40.4097 -117.5269 251° West 379 436 38,000  Level Salt Lake Center
12:23PM 40.3772 -117.6508 251° West 376 433 38,000  Level Oakland Center
12:24PM 40.3372 -117.7939 250° West 374 430 38,000  Level Salt Lake Center
12:25PM 40.3053 -117.9192 252° West 378 435 38,000  Level Oakland Center
12:26PM 40.2739 -118.0350 250° West 376 433 38,000 -300 Level Oakland Center
12:27PM 40.2381 -118.1619 250° West 374 430 37,500 -1,260 Descending Oakland Center
12:28PM 40.2039 -118.2931 251° West 381 438 35,500 -2,700 Descending Oakland Center
12:29PM 40.1606 -118.4486 250° West 381 438 32,100 -2,880 Descending Oakland Center
12:30PM 40.1233 -118.5786 250° West 382 440 29,700 -2,220 Descending Oakland Center
12:31PM 40.0992 -118.7075 256° West 368 423 27,600 -2,880 Descending Oakland Center
12:32PM 40.0656 -118.8369 251° West 374 430 23,900 -3,300 Descending Oakland Center
12:33PM 40.0311 -118.9692 251° West 385 443 20,900 -2,640 Descending Oakland Center
12:34PM 39.9997 -119.0975 252° West 377 434 18,600 -2,220 Descending Oakland Center
12:35PM 39.9669 -119.2217 251° West 367 422 16,400 -2,220 Descending Oakland Center
12:36PM 39.9358 -119.3417 251° West 355 409 14,100 -2,220 Descending Oakland Center
12:37PM 39.9044 -119.4608 251° West 350 403 11,900 -1,680 Descending Oakland Center
12:38PM 39.8664 -119.6006 251° West 338 389 10,700 -900 Descending Oakland Center
12:39PM 39.8072 -119.6658 220° Southwest 288 331 10,100 -780 Descending Oakland Center
12:40PM 39.7478 -119.7225 216° Southwest 270 311 9,200 -1,080 Descending Oakland Center
12:41PM 39.6925 -119.7669 212° Southwest 264 304 7,900 -1,260 Descending Oakland Center
12:42PM 39.6167 -119.7667 180° South 185 213 6,500 -1,020 Descending Northern Cal TRACON
12:43PM 39.5833 -119.7667 180° South 148 170 5,800 -780 Descending Northern Cal TRACON
12:44PM 39.5333 -119.7667 180° South 152 175 5,000 -840 Descending Northern Cal TRACON
12:46PM 39.4991 -119.7681 201° Southwest  Level Estimated
12:53PM 39.4991 -119.7681 201° Southwest  Level Estimated